createdAt,value
2016-10-27T00:00:22.746Z,1024.45
2016-10-27T00:01:22.764Z,1024.5
2016-10-27T00:02:22.787Z,1024.46
2016-10-27T00:03:22.806Z,1024.47
2016-10-27T00:04:22.826Z,1024.51
2016-10-27T00:05:22.844Z,1024.51
2016-10-27T00:06:22.867Z,1024.52
2016-10-27T00:07:22.884Z,1024.53
2016-10-27T00:08:22.908Z,1024.52
2016-10-27T00:09:22.927Z,1024.5
2016-10-27T00:10:22.943Z,1024.49
2016-10-27T00:11:22.969Z,1024.52
2016-10-27T00:12:22.984Z,1024.56
2016-10-27T00:13:23.006Z,1024.54
2016-10-27T00:14:23.025Z,1024.58
2016-10-27T00:15:23.046Z,1024.54
2016-10-27T00:16:23.064Z,1024.52
2016-10-27T00:17:23.086Z,1024.48
2016-10-27T00:18:23.105Z,1024.52
2016-10-27T00:19:23.123Z,1024.49
2016-10-27T00:20:23.143Z,1024.44
2016-10-27T00:21:23.163Z,1024.4
2016-10-27T00:23:23.203Z,1024.36
2016-10-27T00:24:23.223Z,1024.37
2016-10-27T00:25:23.242Z,1024.38
2016-10-27T00:26:23.264Z,1024.31
2016-10-27T00:27:23.282Z,1024.24
2016-10-27T00:28:23.302Z,1024.22
2016-10-27T00:29:23.324Z,1024.21
2016-10-27T00:30:23.341Z,1024.18
2016-10-27T00:31:23.365Z,1024.25
2016-10-27T00:32:23.380Z,1024.24
2016-10-27T00:33:23.403Z,1024.29
2016-10-27T00:34:23.423Z,1024.36
2016-10-27T00:35:23.443Z,1024.35
2016-10-27T00:36:23.713Z,1024.29
2016-10-27T00:37:23.480Z,1024.27
2016-10-27T00:39:23.520Z,1024.26
2016-10-27T00:40:23.541Z,1024.32
2016-10-27T00:41:23.559Z,1024.34
2016-10-27T00:42:23.579Z,1024.31
2016-10-27T00:43:23.598Z,1024.17
2016-10-27T00:44:23.618Z,1024.05
2016-10-27T00:45:23.638Z,1024.08
2016-10-27T00:46:23.660Z,1024.15
2016-10-27T00:47:23.680Z,1024.27
2016-10-27T00:48:23.697Z,1024.36
2016-10-27T00:49:23.720Z,1024.42
2016-10-27T00:50:23.740Z,1024.44
2016-10-27T00:51:23.757Z,1024.51
2016-10-27T00:52:23.779Z,1024.59
2016-10-27T00:53:23.799Z,1024.57
2016-10-27T00:55:23.835Z,1024.57
2016-10-27T00:56:23.858Z,1024.6
2016-10-27T00:57:23.877Z,1024.59
2016-10-27T00:58:23.894Z,1024.58
2016-10-27T00:59:23.916Z,1024.63
2016-10-27T01:00:23.936Z,1024.69
2016-10-27T01:01:23.954Z,1024.73
2016-10-27T01:02:23.973Z,1024.76
2016-10-27T01:03:23.993Z,1024.72
2016-10-27T01:04:24.015Z,1024.73
2016-10-27T01:05:24.385Z,1024.79
2016-10-27T01:06:24.052Z,1024.82
2016-10-27T01:07:24.110Z,1024.8
2016-10-27T01:08:24.092Z,1024.76
2016-10-27T01:09:24.113Z,1024.71
2016-10-27T01:11:24.151Z,1024.78
2016-10-27T01:12:24.171Z,1024.69
2016-10-27T01:13:24.192Z,1024.66
2016-10-27T01:14:24.210Z,1024.62
2016-10-27T01:15:24.230Z,1024.58
2016-10-27T01:16:24.499Z,1024.55
2016-10-27T01:17:24.271Z,1024.61
2016-10-27T01:18:24.289Z,1024.62
2016-10-27T01:19:24.311Z,1024.65
2016-10-27T01:20:24.327Z,1024.69
2016-10-27T01:21:24.348Z,1024.75
2016-10-27T01:22:24.369Z,1024.77
2016-10-27T01:23:24.388Z,1024.79
2016-10-27T01:24:24.410Z,1024.85
2016-10-27T01:26:24.447Z,1024.87
2016-10-27T01:27:24.469Z,1024.86
2016-10-27T01:28:24.489Z,1024.83
2016-10-27T01:29:24.506Z,1024.8
2016-10-27T01:30:24.530Z,1024.84
2016-10-27T01:31:24.548Z,1024.83
2016-10-27T01:32:24.567Z,1024.8
2016-10-27T01:33:24.588Z,1024.82
2016-10-27T01:34:24.608Z,1024.82
2016-10-27T01:35:24.627Z,1024.79
2016-10-27T01:36:24.645Z,1024.79
2016-10-27T01:37:24.667Z,1024.81
2016-10-27T01:38:24.686Z,1024.76
2016-10-27T01:39:24.704Z,1024.84
2016-10-27T01:40:24.726Z,1024.82
2016-10-27T01:41:24.748Z,1024.83
2016-10-27T01:42:24.763Z,1024.79
2016-10-27T01:43:24.783Z,1024.78
2016-10-27T01:44:24.804Z,1024.77
2016-10-27T01:45:24.822Z,1024.69
2016-10-27T01:46:24.843Z,1024.72
2016-10-27T01:47:24.863Z,1024.68
2016-10-27T01:48:24.884Z,1024.7
2016-10-27T01:49:24.904Z,1024.67
2016-10-27T01:50:24.924Z,1024.67
2016-10-27T01:51:24.944Z,1024.64
2016-10-27T01:52:24.962Z,1024.65
2016-10-27T01:53:24.982Z,1024.63
2016-10-27T01:54:25.002Z,1024.67
2016-10-27T01:55:25.023Z,1024.66
2016-10-27T01:56:25.043Z,1024.69
2016-10-27T01:58:25.084Z,1024.62
2016-10-27T01:59:25.104Z,1024.6
2016-10-27T02:00:25.123Z,1024.59
2016-10-27T02:01:25.141Z,1024.57
2016-10-27T02:02:25.163Z,1024.55
2016-10-27T02:03:25.181Z,1024.5
2016-10-27T02:04:25.202Z,1024.52
2016-10-27T02:05:25.223Z,1024.51
2016-10-27T02:06:25.243Z,1024.44
2016-10-27T02:07:25.262Z,1024.47
2016-10-27T02:08:25.282Z,1024.37
2016-10-27T02:09:25.300Z,1024.39
2016-10-27T02:10:25.320Z,1024.35
2016-10-27T02:11:25.340Z,1024.33
2016-10-27T02:12:25.360Z,1024.35
2016-10-27T02:14:25.402Z,1024.26
2016-10-27T02:15:25.419Z,1024.22
2016-10-27T02:16:25.439Z,1024.22
2016-10-27T02:17:25.460Z,1024.17
2016-10-27T02:18:25.478Z,1024.19
2016-10-27T02:19:25.502Z,1024.14
2016-10-27T02:20:25.519Z,1024.13
2016-10-27T02:21:25.541Z,1024.13
2016-10-27T02:22:25.560Z,1024.13
2016-10-27T02:23:25.580Z,1024.16
2016-10-27T02:24:25.600Z,1024.12
2016-10-27T02:25:25.618Z,1024.11
2016-10-27T02:26:25.637Z,1024.15
2016-10-27T02:27:25.660Z,1024.14
2016-10-27T02:28:25.680Z,1024.15
2016-10-27T02:30:25.717Z,1024.17
2016-10-27T02:31:25.737Z,1024.09
2016-10-27T02:32:25.757Z,1024.11
2016-10-27T02:33:25.778Z,1024.05
2016-10-27T02:34:25.798Z,1024.09
2016-10-27T02:35:25.818Z,1024.09
2016-10-27T02:36:25.838Z,1024.08
2016-10-27T02:37:25.854Z,1024.05
2016-10-27T02:38:25.874Z,1024.04
2016-10-27T02:39:25.903Z,1024.07
2016-10-27T02:40:25.915Z,1024.05
2016-10-27T02:41:25.937Z,1024.05
2016-10-27T02:42:25.957Z,1024.08
2016-10-27T02:43:25.975Z,1024.05
2016-10-27T02:44:25.996Z,1024.06
2016-10-27T02:46:26.035Z,1024.05
2016-10-27T02:47:26.053Z,1024.05
2016-10-27T02:48:26.074Z,1024.08
2016-10-27T02:49:26.094Z,1024.08
2016-10-27T02:50:26.112Z,1024.05
2016-10-27T02:51:26.130Z,1024.07
2016-10-27T02:52:26.152Z,1024.08
2016-10-27T02:53:26.172Z,1024.11
2016-10-27T02:54:26.191Z,1024.08
2016-10-27T02:55:26.208Z,1024.07
2016-10-27T02:56:26.230Z,1024.08
2016-10-27T02:57:26.248Z,1024.13
2016-10-27T02:58:26.268Z,1024.19
2016-10-27T02:59:26.289Z,1024.15
2016-10-27T03:01:26.328Z,1024.14
2016-10-27T03:02:26.348Z,1024.09
2016-10-27T03:03:26.366Z,1024.07
2016-10-27T03:04:26.383Z,1024.07
2016-10-27T03:05:26.403Z,1024.05
2016-10-27T03:06:26.422Z,1024.04
2016-10-27T03:07:26.443Z,1024.07
2016-10-27T03:08:26.461Z,1024.03
2016-10-27T03:09:26.481Z,1024.08
2016-10-27T03:10:26.501Z,1024.08
2016-10-27T03:11:26.519Z,1024.03
2016-10-27T03:12:26.538Z,1024.1
2016-10-27T03:13:26.559Z,1024.1
2016-10-27T03:14:26.576Z,1024.12
2016-10-27T03:15:26.596Z,1024.14
2016-10-27T03:16:26.619Z,1024.16
2016-10-27T03:17:26.637Z,1024.16
2016-10-27T03:18:26.656Z,1024.22
2016-10-27T03:19:26.677Z,1024.21
2016-10-27T03:20:26.694Z,1024.2
2016-10-27T03:21:26.713Z,1024.26
2016-10-27T03:22:26.733Z,1024.31
2016-10-27T03:23:26.752Z,1024.29
2016-10-27T03:24:26.773Z,1024.26
2016-10-27T03:25:26.790Z,1024.31
2016-10-27T03:26:26.811Z,1024.31
2016-10-27T03:27:26.830Z,1024.35
2016-10-27T03:28:26.849Z,1024.39
2016-10-27T03:29:26.867Z,1024.38
2016-10-27T03:30:26.889Z,1024.45
2016-10-27T03:31:26.905Z,1024.42
2016-10-27T03:33:26.944Z,1024.48
2016-10-27T03:34:26.964Z,1024.52
2016-10-27T03:35:26.982Z,1024.51
2016-10-27T03:36:27.002Z,1024.57
2016-10-27T03:37:27.023Z,1024.54
2016-10-27T03:38:27.043Z,1024.55
2016-10-27T03:39:27.060Z,1024.54
2016-10-27T03:40:27.080Z,1024.5
2016-10-27T03:41:27.100Z,1024.51
2016-10-27T03:42:27.116Z,1024.46
2016-10-27T03:43:27.137Z,1024.46
2016-10-27T03:44:27.155Z,1024.45
2016-10-27T03:45:27.176Z,1024.5
2016-10-27T03:46:27.192Z,1024.48
2016-10-27T03:47:27.212Z,1024.53
2016-10-27T03:49:27.253Z,1024.52
2016-10-27T03:50:27.271Z,1024.5
2016-10-27T03:51:27.290Z,1024.52
2016-10-27T03:52:27.310Z,1024.46
2016-10-27T03:53:27.328Z,1024.5
2016-10-27T03:54:27.345Z,1024.48
2016-10-27T03:55:27.366Z,1024.48
2016-10-27T03:56:27.384Z,1024.54
2016-10-27T03:57:27.402Z,1024.54
2016-10-27T03:58:27.423Z,1024.51
2016-10-27T03:59:27.443Z,1024.53
2016-10-27T04:00:27.462Z,1024.5
2016-10-27T04:01:27.479Z,1024.51
2016-10-27T04:02:27.498Z,1024.47
2016-10-27T04:03:27.516Z,1024.49
2016-10-27T04:05:27.554Z,1024.5
2016-10-27T04:06:27.573Z,1024.53
2016-10-27T04:07:27.592Z,1024.53
2016-10-27T04:08:27.611Z,1024.52
2016-10-27T04:09:27.630Z,1024.53
2016-10-27T04:10:27.649Z,1024.51
2016-10-27T04:11:27.668Z,1024.49
2016-10-27T04:12:27.686Z,1024.48
2016-10-27T04:13:27.707Z,1024.48
2016-10-27T04:14:27.726Z,1024.45
2016-10-27T04:15:27.744Z,1024.47
2016-10-27T04:16:27.763Z,1024.46
2016-10-27T04:17:27.782Z,1024.43
2016-10-27T04:18:27.799Z,1024.43
2016-10-27T04:19:27.818Z,1024.41
2016-10-27T04:21:27.859Z,1024.38
2016-10-27T04:22:27.875Z,1024.38
2016-10-27T04:23:27.895Z,1024.4
2016-10-27T04:24:27.912Z,1024.38
2016-10-27T04:25:27.931Z,1024.37
2016-10-27T04:26:27.951Z,1024.39
2016-10-27T04:27:27.969Z,1024.44
2016-10-27T04:28:27.987Z,1024.43
2016-10-27T04:29:28.008Z,1024.44
2016-10-27T04:30:28.024Z,1024.46
2016-10-27T04:31:28.045Z,1024.41
2016-10-27T04:32:28.062Z,1024.44
2016-10-27T04:33:28.084Z,1024.42
2016-10-27T04:34:28.103Z,1024.47
2016-10-27T04:36:28.142Z,1024.5
2016-10-27T04:37:28.156Z,1024.53
2016-10-27T04:38:28.176Z,1024.48
2016-10-27T04:39:28.194Z,1024.44
2016-10-27T04:40:28.215Z,1024.46
2016-10-27T04:41:28.234Z,1024.39
2016-10-27T04:42:28.251Z,1024.44
2016-10-27T04:43:28.271Z,1024.44
2016-10-27T04:44:28.287Z,1024.43
2016-10-27T04:45:28.306Z,1024.41
2016-10-27T04:46:28.977Z,1024.43
2016-10-27T04:47:28.345Z,1024.45
2016-10-27T04:48:28.362Z,1024.5
2016-10-27T04:49:28.382Z,1024.46
2016-10-27T04:50:28.403Z,1024.46
2016-10-27T04:51:28.421Z,1024.48
2016-10-27T04:52:28.437Z,1024.44
2016-10-27T04:53:28.459Z,1024.44
2016-10-27T04:54:28.478Z,1024.49
2016-10-27T04:55:28.495Z,1024.44
2016-10-27T04:56:28.512Z,1024.47
2016-10-27T04:57:28.534Z,1024.45
2016-10-27T04:58:28.550Z,1024.43
2016-10-27T04:59:28.568Z,1024.5
2016-10-27T05:00:28.587Z,1024.45
2016-10-27T05:01:28.606Z,1024.45
2016-10-27T05:02:28.626Z,1024.44
2016-10-27T05:03:28.645Z,1024.41
2016-10-27T05:04:28.662Z,1024.4
2016-10-27T05:05:28.682Z,1024.41
2016-10-27T05:06:28.700Z,1024.38
2016-10-27T05:08:28.738Z,1024.43
2016-10-27T05:09:28.757Z,1024.44
2016-10-27T05:10:28.775Z,1024.47
2016-10-27T05:11:28.791Z,1024.47
2016-10-27T05:12:28.811Z,1024.46
2016-10-27T05:13:28.829Z,1024.43
2016-10-27T05:14:28.847Z,1024.47
2016-10-27T05:15:28.868Z,1024.48
2016-10-27T05:16:29.136Z,1024.44
2016-10-27T05:17:28.902Z,1024.45
2016-10-27T05:18:28.924Z,1024.48
2016-10-27T05:19:28.942Z,1024.48
2016-10-27T05:20:28.958Z,1024.47
2016-10-27T05:21:28.976Z,1024.53
2016-10-27T05:22:28.996Z,1024.5
2016-10-27T05:24:29.032Z,1024.5
2016-10-27T05:25:29.050Z,1024.51
2016-10-27T05:26:29.068Z,1024.49
2016-10-27T05:27:29.089Z,1024.49
2016-10-27T05:28:29.107Z,1024.49
2016-10-27T05:29:29.125Z,1024.5
2016-10-27T05:30:29.142Z,1024.46
2016-10-27T05:31:29.163Z,1024.43
2016-10-27T05:32:29.179Z,1024.5
2016-10-27T05:33:29.197Z,1024.55
2016-10-27T05:34:29.216Z,1024.51
2016-10-27T05:35:29.235Z,1024.51
2016-10-27T05:36:29.253Z,1024.46
2016-10-27T05:37:29.274Z,1024.49
2016-10-27T05:38:29.291Z,1024.45
2016-10-27T05:40:29.327Z,1024.47
2016-10-27T05:41:29.346Z,1024.44
2016-10-27T05:42:29.517Z,1024.43
2016-10-27T05:43:29.385Z,1024.47
2016-10-27T05:44:29.402Z,1024.43
2016-10-27T05:45:29.423Z,1024.42
2016-10-27T05:46:29.540Z,1024.42
2016-10-27T05:47:29.460Z,1024.43
2016-10-27T05:48:29.477Z,1024.45
2016-10-27T05:49:29.499Z,1024.5
2016-10-27T05:50:29.515Z,1024.51
2016-10-27T05:51:29.535Z,1024.52
2016-10-27T05:52:29.554Z,1024.5
2016-10-27T05:53:29.571Z,1024.49
2016-10-27T05:54:29.589Z,1024.5
2016-10-27T05:56:29.629Z,1024.48
2016-10-27T05:57:29.647Z,1024.48
2016-10-27T05:58:29.664Z,1024.47
2016-10-27T05:59:29.683Z,1024.49
2016-10-27T06:00:29.702Z,1024.44
2016-10-27T06:01:29.722Z,1024.46
2016-10-27T06:02:29.741Z,1024.45
2016-10-27T06:03:29.760Z,1024.47
2016-10-27T06:04:29.779Z,1024.55
2016-10-27T06:05:29.795Z,1024.55
2016-10-27T06:06:29.814Z,1024.52
2016-10-27T06:07:29.833Z,1024.55
2016-10-27T06:08:29.854Z,1024.58
2016-10-27T06:09:29.874Z,1024.61
2016-10-27T06:11:29.912Z,1024.61
2016-10-27T06:12:29.930Z,1024.61
2016-10-27T06:13:29.949Z,1024.65
2016-10-27T06:14:29.966Z,1024.66
2016-10-27T06:15:29.986Z,1024.66
2016-10-27T06:16:30.007Z,1024.67
2016-10-27T06:17:30.025Z,1024.69
2016-10-27T06:18:30.046Z,1024.72
2016-10-27T06:19:30.061Z,1024.72
2016-10-27T06:20:30.082Z,1024.74
2016-10-27T06:21:30.099Z,1024.77
2016-10-27T06:22:30.120Z,1024.77
2016-10-27T06:23:30.138Z,1024.74
2016-10-27T06:24:30.155Z,1024.76
2016-10-27T06:25:30.177Z,1024.76
2016-10-27T06:26:30.196Z,1024.75
2016-10-27T06:27:30.215Z,1024.75
2016-10-27T06:28:30.232Z,1024.77
2016-10-27T06:29:30.504Z,1024.72
2016-10-27T06:30:30.272Z,1024.73
2016-10-27T06:31:30.289Z,1024.75
2016-10-27T06:32:30.308Z,1024.76
2016-10-27T06:33:30.327Z,1024.74
2016-10-27T06:34:30.348Z,1024.79
2016-10-27T06:35:30.368Z,1024.82
2016-10-27T06:36:30.387Z,1024.83
2016-10-27T06:37:30.406Z,1024.82
2016-10-27T06:38:30.426Z,1024.86
2016-10-27T06:39:30.444Z,1024.83
2016-10-27T06:40:30.461Z,1024.83
2016-10-27T06:41:30.480Z,1024.8
2016-10-27T06:43:30.519Z,1024.82
2016-10-27T06:44:30.538Z,1024.83
2016-10-27T06:45:30.558Z,1024.84
2016-10-27T06:46:30.576Z,1024.83
2016-10-27T06:47:30.595Z,1024.82
2016-10-27T06:48:30.617Z,1024.78
2016-10-27T06:49:30.633Z,1024.79
2016-10-27T06:50:30.653Z,1024.79
2016-10-27T06:51:30.672Z,1024.74
2016-10-27T06:52:30.694Z,1024.75
2016-10-27T06:53:30.710Z,1024.74
2016-10-27T06:54:30.730Z,1024.76
2016-10-27T06:55:30.749Z,1024.79
2016-10-27T06:56:30.770Z,1024.76
2016-10-27T06:57:30.787Z,1024.79
2016-10-27T06:59:30.826Z,1024.79
2016-10-27T07:00:30.847Z,1024.77
2016-10-27T07:01:31.117Z,1024.79
2016-10-27T07:02:30.885Z,1024.82
2016-10-27T07:03:30.903Z,1024.81
2016-10-27T07:04:30.925Z,1024.87
2016-10-27T07:05:30.945Z,1024.82
2016-10-27T07:06:30.964Z,1024.8
2016-10-27T07:07:30.981Z,1024.8
2016-10-27T07:08:31.001Z,1024.8
2016-10-27T07:09:31.023Z,1024.82
2016-10-27T07:10:31.040Z,1024.83
2016-10-27T07:11:31.061Z,1024.83
2016-10-27T07:12:31.081Z,1024.83
2016-10-27T07:13:31.099Z,1024.83
2016-10-27T07:15:31.137Z,1024.82
2016-10-27T07:16:31.159Z,1024.79
2016-10-27T07:17:31.180Z,1024.79
2016-10-27T07:18:31.296Z,1024.81
2016-10-27T07:19:31.218Z,1024.83
2016-10-27T07:20:31.236Z,1024.79
2016-10-27T07:21:31.258Z,1024.87
2016-10-27T07:22:31.277Z,1024.86
2016-10-27T07:23:31.296Z,1024.81
2016-10-27T07:24:31.314Z,1024.78
2016-10-27T07:25:31.333Z,1024.84
2016-10-27T07:26:31.355Z,1024.82
2016-10-27T07:27:31.373Z,1024.83
2016-10-27T07:28:31.393Z,1024.83
2016-10-27T07:29:31.414Z,1024.81
2016-10-27T07:31:31.454Z,1024.82
2016-10-27T07:32:31.474Z,1024.81
2016-10-27T07:33:31.491Z,1024.81
2016-10-27T07:34:31.511Z,1024.82
2016-10-27T07:35:31.531Z,1024.84
2016-10-27T07:36:31.550Z,1024.84
2016-10-27T07:37:31.572Z,1024.87
2016-10-27T07:38:31.592Z,1024.86
2016-10-27T07:39:31.610Z,1024.89
2016-10-27T07:40:31.630Z,1024.88
2016-10-27T07:41:31.652Z,1024.91
2016-10-27T07:42:31.670Z,1024.87
2016-10-27T07:43:31.692Z,1024.85
2016-10-27T07:44:31.712Z,1024.9
2016-10-27T07:46:31.751Z,1024.94
2016-10-27T07:47:31.769Z,1024.93
2016-10-27T07:48:31.790Z,1024.96
2016-10-27T07:49:31.810Z,1024.94
2016-10-27T07:50:31.831Z,1024.95
2016-10-27T07:51:31.849Z,1024.94
2016-10-27T07:52:31.870Z,1024.92
2016-10-27T07:53:31.892Z,1024.93
2016-10-27T07:54:31.909Z,1024.95
2016-10-27T07:55:32.180Z,1024.99
2016-10-27T07:56:31.951Z,1025.01
2016-10-27T07:57:31.972Z,1025.02
2016-10-27T07:58:31.989Z,1025.03
2016-10-27T07:59:32.012Z,1025
2016-10-27T08:00:32.032Z,1025.02
2016-10-27T08:01:32.052Z,1025.01
2016-10-27T08:02:32.072Z,1025.03
2016-10-27T08:03:32.092Z,1025.06
2016-10-27T08:04:32.110Z,1025.04
2016-10-27T08:05:32.154Z,1025
2016-10-27T08:06:32.152Z,1024.98
2016-10-27T08:07:32.171Z,1025.03
2016-10-27T08:08:32.191Z,1025.02
2016-10-27T08:09:32.210Z,1025.02
2016-10-27T08:10:32.230Z,1025.01
2016-10-27T08:11:32.253Z,1025.01
2016-10-27T08:12:32.276Z,1025
2016-10-27T08:13:32.290Z,1025.01
2016-10-27T08:14:32.313Z,1024.98
2016-10-27T08:15:32.331Z,1025.05
2016-10-27T08:16:32.351Z,1025.07
2016-10-27T08:18:32.394Z,1025.1
2016-10-27T08:19:32.412Z,1025.1
2016-10-27T08:20:32.434Z,1025.12
2016-10-27T08:21:32.454Z,1025.13
2016-10-27T08:22:32.474Z,1025.14
2016-10-27T08:23:32.496Z,1025.15
2016-10-27T08:24:32.513Z,1025.14
2016-10-27T08:25:32.532Z,1025.17
2016-10-27T08:26:32.557Z,1025.18
2016-10-27T08:27:32.574Z,1025.18
2016-10-27T08:28:32.593Z,1025.17
2016-10-27T08:29:32.615Z,1025.18
2016-10-27T08:30:32.634Z,1025.18
2016-10-27T08:31:32.653Z,1025.24
2016-10-27T08:32:32.675Z,1025.24
2016-10-27T08:34:32.715Z,1025.29
2016-10-27T08:35:32.735Z,1025.35
2016-10-27T08:36:32.755Z,1025.34
2016-10-27T08:37:32.778Z,1025.31
2016-10-27T08:38:32.796Z,1025.33
2016-10-27T08:39:32.818Z,1025.33
2016-10-27T08:40:32.840Z,1025.34
2016-10-27T08:41:32.859Z,1025.38
2016-10-27T08:42:32.877Z,1025.35
2016-10-27T08:43:32.898Z,1025.41
2016-10-27T08:44:32.922Z,1025.41
2016-10-27T08:45:32.942Z,1025.45
2016-10-27T08:46:32.961Z,1025.46
2016-10-27T08:47:32.980Z,1025.44
2016-10-27T08:48:33.001Z,1025.47
2016-10-27T08:50:33.094Z,1025.41
2016-10-27T08:51:33.064Z,1025.42
2016-10-27T08:52:33.082Z,1025.39
2016-10-27T08:53:33.104Z,1025.42
2016-10-27T08:54:33.125Z,1025.44
2016-10-27T08:55:33.144Z,1025.45
2016-10-27T08:56:33.164Z,1025.42
2016-10-27T08:57:33.184Z,1025.44
2016-10-27T08:58:33.207Z,1025.47
2016-10-27T08:59:33.228Z,1025.51
2016-10-27T09:00:33.247Z,1025.52
2016-10-27T09:01:33.266Z,1025.49
2016-10-27T09:02:33.287Z,1025.54
2016-10-27T09:03:33.310Z,1025.55
2016-10-27T09:04:33.329Z,1025.56
2016-10-27T09:06:33.371Z,1025.58
2016-10-27T09:07:33.392Z,1025.6
2016-10-27T09:08:33.412Z,1025.56
2016-10-27T09:09:33.434Z,1025.62
2016-10-27T09:10:33.452Z,1025.6
2016-10-27T09:11:33.472Z,1025.61
2016-10-27T09:12:33.495Z,1025.64
2016-10-27T09:13:33.514Z,1025.64
2016-10-27T09:14:33.536Z,1025.6
2016-10-27T09:15:33.583Z,1025.64
2016-10-27T09:16:33.576Z,1025.6
2016-10-27T09:17:33.596Z,1025.6
2016-10-27T09:18:33.617Z,1025.61
2016-10-27T09:19:33.640Z,1025.63
2016-10-27T09:21:33.683Z,1025.6
2016-10-27T09:22:33.702Z,1025.66
2016-10-27T09:23:33.723Z,1025.64
2016-10-27T09:24:33.742Z,1025.65
2016-10-27T09:25:33.763Z,1025.68
2016-10-27T09:26:33.785Z,1025.65
2016-10-27T09:27:33.807Z,1025.69
2016-10-27T09:28:33.828Z,1025.71
2016-10-27T09:29:33.845Z,1025.7
2016-10-27T09:30:33.867Z,1025.72
2016-10-27T09:31:33.890Z,1025.68
2016-10-27T09:32:33.911Z,1025.69
2016-10-27T09:33:33.929Z,1025.71
2016-10-27T09:34:33.952Z,1025.67
2016-10-27T09:35:33.973Z,1025.61
2016-10-27T09:36:33.992Z,1025.67
2016-10-27T09:37:34.014Z,1025.69
2016-10-27T09:38:34.035Z,1025.67
2016-10-27T09:39:34.057Z,1025.66
2016-10-27T09:40:34.375Z,1025.65
2016-10-27T09:41:34.096Z,1025.67
2016-10-27T09:42:34.119Z,1025.66
2016-10-27T09:43:34.138Z,1025.67
2016-10-27T09:44:34.158Z,1025.65
2016-10-27T09:45:34.179Z,1025.68
2016-10-27T09:46:34.203Z,1025.7
2016-10-27T09:47:34.223Z,1025.69
2016-10-27T09:48:34.244Z,1025.7
2016-10-27T09:49:34.265Z,1025.66
2016-10-27T09:50:34.284Z,1025.66
2016-10-27T09:51:34.306Z,1025.67
2016-10-27T09:53:34.349Z,1025.67
2016-10-27T09:54:34.368Z,1025.68
2016-10-27T09:55:34.388Z,1025.66
2016-10-27T09:56:34.409Z,1025.63
2016-10-27T09:57:34.434Z,1025.64
2016-10-27T09:58:34.454Z,1025.63
2016-10-27T09:59:34.474Z,1025.64
2016-10-27T10:00:34.494Z,1025.6
2016-10-27T10:01:34.517Z,1025.66
2016-10-27T10:02:34.540Z,1025.66
2016-10-27T10:03:34.556Z,1025.62
2016-10-27T10:04:34.578Z,1025.67
2016-10-27T10:05:34.599Z,1025.66
2016-10-27T10:06:34.620Z,1025.66
2016-10-27T10:07:34.643Z,1025.65
2016-10-27T10:09:34.686Z,1025.66
2016-10-27T10:10:34.707Z,1025.66
2016-10-27T10:11:34.725Z,1025.69
2016-10-27T10:12:34.747Z,1025.67
2016-10-27T10:13:34.767Z,1025.69
2016-10-27T10:14:34.792Z,1025.7
2016-10-27T10:15:34.812Z,1025.69
2016-10-27T10:16:34.834Z,1025.68
2016-10-27T10:17:34.855Z,1025.68
2016-10-27T10:18:34.874Z,1025.69
2016-10-27T10:19:34.927Z,1025.67
2016-10-27T10:20:34.919Z,1025.65
2016-10-27T10:21:34.939Z,1025.68
2016-10-27T10:22:34.959Z,1025.63
2016-10-27T10:23:34.980Z,1025.67
2016-10-27T10:25:35.023Z,1025.65
2016-10-27T10:26:35.044Z,1025.67
2016-10-27T10:27:35.067Z,1025.67
2016-10-27T10:28:35.088Z,1025.69
2016-10-27T10:29:35.108Z,1025.65
2016-10-27T10:30:35.129Z,1025.62
2016-10-27T10:31:35.150Z,1025.64
2016-10-27T10:32:35.171Z,1025.66
2016-10-27T10:33:35.193Z,1025.63
2016-10-27T10:34:35.214Z,1025.68
2016-10-27T10:35:35.235Z,1025.65
2016-10-27T10:36:35.258Z,1025.63
2016-10-27T10:37:35.280Z,1025.62
2016-10-27T10:38:35.300Z,1025.57
2016-10-27T10:39:35.320Z,1025.59
2016-10-27T10:41:35.364Z,1025.54
2016-10-27T10:42:35.386Z,1025.51
2016-10-27T10:43:35.408Z,1025.5
2016-10-27T10:44:35.430Z,1025.51
2016-10-27T10:45:35.450Z,1025.54
2016-10-27T10:46:35.472Z,1025.56
2016-10-27T10:47:35.494Z,1025.6
2016-10-27T10:48:35.517Z,1025.6
2016-10-27T10:49:35.538Z,1025.59
2016-10-27T10:50:35.557Z,1025.57
2016-10-27T10:51:35.579Z,1025.65
2016-10-27T10:52:35.602Z,1025.59
2016-10-27T10:53:35.622Z,1025.62
2016-10-27T10:54:35.644Z,1025.64
2016-10-27T10:56:35.690Z,1025.66
2016-10-27T10:57:35.711Z,1025.67
2016-10-27T10:58:35.733Z,1025.68
2016-10-27T10:59:35.754Z,1025.67
2016-10-27T11:00:35.776Z,1025.63
2016-10-27T11:01:35.798Z,1025.68
2016-10-27T11:02:35.819Z,1025.64
2016-10-27T11:03:35.839Z,1025.6
2016-10-27T11:04:35.860Z,1025.67
2016-10-27T11:05:35.885Z,1025.64
2016-10-27T11:06:35.904Z,1025.7
2016-10-27T11:07:35.928Z,1025.65
2016-10-27T11:08:35.949Z,1025.67
2016-10-27T11:09:35.972Z,1025.69
2016-10-27T11:10:35.994Z,1025.74
2016-10-27T11:11:36.016Z,1025.76
2016-10-27T11:12:36.034Z,1025.76
2016-10-27T11:13:36.056Z,1025.82
2016-10-27T11:14:36.078Z,1025.8
2016-10-27T11:15:36.101Z,1025.79
2016-10-27T11:16:36.123Z,1025.78
2016-10-27T11:17:36.143Z,1025.81
2016-10-27T11:18:36.167Z,1025.85
2016-10-27T11:19:36.186Z,1025.81
2016-10-27T11:20:36.209Z,1025.81
2016-10-27T11:21:36.230Z,1025.79
2016-10-27T11:22:36.255Z,1025.83
2016-10-27T11:23:36.276Z,1025.84
2016-10-27T11:24:36.297Z,1025.81
2016-10-27T11:25:36.320Z,1025.84
2016-10-27T11:26:36.342Z,1025.81
2016-10-27T11:28:36.383Z,1025.84
2016-10-27T11:29:36.408Z,1025.85
2016-10-27T11:30:36.429Z,1025.85
2016-10-27T11:31:36.451Z,1025.81
2016-10-27T11:32:36.474Z,1025.75
2016-10-27T11:33:36.495Z,1025.83
2016-10-27T11:34:36.516Z,1025.8
2016-10-27T11:35:36.538Z,1025.79
2016-10-27T11:36:36.561Z,1025.77
2016-10-27T11:37:36.579Z,1025.74
2016-10-27T11:38:36.601Z,1025.77
2016-10-27T11:39:36.624Z,1025.73
2016-10-27T11:40:36.648Z,1025.73
2016-10-27T11:41:36.669Z,1025.71
2016-10-27T11:42:36.689Z,1025.74
2016-10-27T11:44:36.734Z,1025.75
2016-10-27T11:45:36.756Z,1025.74
2016-10-27T11:46:36.780Z,1025.81
2016-10-27T11:47:36.800Z,1025.79
2016-10-27T11:48:36.820Z,1025.82
2016-10-27T11:49:36.843Z,1025.76
2016-10-27T11:50:36.867Z,1025.76
2016-10-27T11:51:36.887Z,1025.79
2016-10-27T11:52:36.909Z,1025.82
2016-10-27T11:53:36.931Z,1025.84
2016-10-27T11:54:36.953Z,1025.85
2016-10-27T11:55:36.975Z,1025.85
2016-10-27T11:56:36.999Z,1025.84
2016-10-27T11:57:37.019Z,1025.86
2016-10-27T11:58:37.041Z,1025.85
2016-10-27T12:00:37.084Z,1025.87
2016-10-27T12:01:37.109Z,1025.9
2016-10-27T12:02:37.131Z,1025.86
2016-10-27T12:03:37.151Z,1025.82
2016-10-27T12:04:37.173Z,1025.85
2016-10-27T12:05:37.198Z,1025.83
2016-10-27T12:06:37.220Z,1025.83
2016-10-27T12:07:37.239Z,1025.87
2016-10-27T12:08:37.264Z,1025.87
2016-10-27T12:09:37.283Z,1025.83
2016-10-27T12:10:37.305Z,1025.85
2016-10-27T12:11:37.329Z,1025.85
2016-10-27T12:12:37.351Z,1025.78
2016-10-27T12:13:37.434Z,1025.8
2016-10-27T12:14:37.394Z,1025.79
2016-10-27T12:16:37.440Z,1025.8
2016-10-27T12:17:37.459Z,1025.79
2016-10-27T12:18:37.481Z,1025.79
2016-10-27T12:19:37.505Z,1025.84
2016-10-27T12:20:37.525Z,1025.83
2016-10-27T12:21:37.549Z,1025.83
2016-10-27T12:22:37.572Z,1025.79
2016-10-27T12:23:37.593Z,1025.8
2016-10-27T12:24:37.613Z,1025.77
2016-10-27T12:25:37.637Z,1025.79
2016-10-27T12:26:37.657Z,1025.74
2016-10-27T12:27:37.883Z,1025.77
2016-10-27T12:28:37.702Z,1025.77
2016-10-27T12:29:37.726Z,1025.72
2016-10-27T12:31:37.769Z,1025.66
2016-10-27T12:32:37.793Z,1025.69
2016-10-27T12:33:37.815Z,1025.65
2016-10-27T12:34:37.837Z,1025.68
2016-10-27T12:35:37.859Z,1025.67
2016-10-27T12:36:37.878Z,1025.7
2016-10-27T12:37:37.902Z,1025.67
2016-10-27T12:38:37.923Z,1025.62
2016-10-27T12:39:37.946Z,1025.67
2016-10-27T12:40:37.968Z,1025.63
2016-10-27T12:41:37.992Z,1025.6
2016-10-27T12:42:38.012Z,1025.56
2016-10-27T12:43:38.035Z,1025.59
2016-10-27T12:44:38.055Z,1025.56
2016-10-27T12:45:38.080Z,1025.56
2016-10-27T12:46:38.100Z,1025.56
2016-10-27T12:47:38.124Z,1025.57